createdAt,value
2023-05-10T00:01:13.358Z,18.94
2023-05-10T00:03:45.847Z,18.95
2023-05-10T00:06:18.475Z,18.94
2023-05-10T00:08:52.423Z,18.93
2023-05-10T00:11:24.779Z,18.93
2023-05-10T00:13:57.188Z,18.93
2023-05-10T00:16:29.581Z,18.93
2023-05-10T00:19:01.960Z,18.92
2023-05-10T00:21:34.751Z,18.92
2023-05-10T00:24:07.195Z,18.91
2023-05-10T00:26:39.530Z,18.91
2023-05-10T00:29:12.242Z,18.90
2023-05-10T00:31:44.932Z,18.91
2023-05-10T00:34:17.443Z,18.89
2023-05-10T00:36:50.910Z,18.90
2023-05-10T00:39:23.273Z,18.88
2023-05-10T00:41:55.670Z,18.89
2023-05-10T00:44:29.151Z,18.88
2023-05-10T00:47:01.850Z,18.87
2023-05-10T00:49:35.503Z,18.86
2023-05-10T00:52:07.949Z,18.86
2023-05-10T00:54:40.423Z,18.84
2023-05-10T00:57:12.795Z,18.85
2023-05-10T00:59:45.190Z,18.85
2023-05-10T01:02:17.584Z,18.85
2023-05-10T01:04:50.596Z,18.84
2023-05-10T01:07:23.276Z,18.84
2023-05-10T01:09:55.826Z,18.84
2023-05-10T01:12:28.493Z,18.83
2023-05-10T01:15:02.612Z,18.83
2023-05-10T01:17:40.477Z,18.81
2023-05-10T01:20:14.191Z,18.82
2023-05-10T01:22:58.639Z,18.81
2023-05-10T01:25:49.844Z,18.79
2023-05-10T01:28:51.575Z,18.80
2023-05-10T01:32:04.725Z,18.79
2023-05-10T01:34:51.900Z,18.78
2023-05-10T01:37:43.690Z,18.76
2023-05-10T01:40:31.553Z,18.77
2023-05-10T01:43:09.104Z,18.74
2023-05-10T01:45:57.844Z,18.75
2023-05-10T01:48:32.443Z,18.75
2023-05-10T01:51:07.253Z,18.73
2023-05-10T01:53:41.732Z,18.73
2023-05-10T01:56:16.413Z,18.73
2023-05-10T01:58:50.992Z,18.72
2023-05-10T02:01:27.152Z,18.71
2023-05-10T02:04:01.017Z,18.72
2023-05-10T02:06:34.651Z,18.71
2023-05-10T02:09:08.863Z,18.70
2023-05-10T02:11:44.004Z,18.70
2023-05-10T02:14:17.782Z,18.69
2023-05-10T02:16:53.404Z,18.69
2023-05-10T02:19:28.937Z,18.69
2023-05-10T02:22:08.640Z,18.69
2023-05-10T02:24:42.304Z,18.69
2023-05-10T02:27:17.883Z,18.68
2023-05-10T02:29:52.568Z,18.66
2023-05-10T02:32:27.356Z,18.67
2023-05-10T02:35:02.981Z,18.66
2023-05-10T02:37:37.741Z,18.66
2023-05-10T02:40:11.327Z,18.67
2023-05-10T02:42:45.886Z,18.65
2023-05-10T02:45:23.008Z,18.66
2023-05-10T02:47:56.605Z,18.62
2023-05-10T02:50:31.389Z,18.64
2023-05-10T02:53:32.170Z,18.64
2023-05-10T02:56:17.237Z,18.62
2023-05-10T02:58:49.648Z,18.62
2023-05-10T03:01:22.101Z,18.60
2023-05-10T03:03:55.149Z,18.61
2023-05-10T03:06:27.653Z,18.60
2023-05-10T03:09:00.290Z,18.60
2023-05-10T03:11:45.860Z,18.61
2023-05-10T03:15:01.037Z,18.58
2023-05-10T03:17:48.344Z,18.58
2023-05-10T03:20:27.053Z,18.58
2023-05-10T03:23:12.425Z,18.57
2023-05-10T03:25:46.982Z,18.56
2023-05-10T03:28:21.678Z,18.53
2023-05-10T03:30:55.576Z,18.55
2023-05-10T03:33:28.127Z,18.54
2023-05-10T03:36:00.466Z,18.53
2023-05-10T03:38:32.791Z,18.54
2023-05-10T03:41:05.202Z,18.53
2023-05-10T03:43:38.783Z,18.53
2023-05-10T03:46:11.501Z,18.51
2023-05-10T03:48:44.370Z,18.52
2023-05-10T03:51:16.898Z,18.51
2023-05-10T03:53:49.382Z,18.50
2023-05-10T03:56:22.153Z,18.50
2023-05-10T03:58:54.664Z,18.49
2023-05-10T04:01:27.321Z,18.48
2023-05-10T04:03:59.859Z,18.47
2023-05-10T04:06:33.042Z,18.48
2023-05-10T04:09:05.559Z,18.47
2023-05-10T04:11:37.942Z,18.47
2023-05-10T04:14:10.421Z,18.46
2023-05-10T04:16:42.798Z,18.45
2023-05-10T04:19:15.118Z,18.43
2023-05-10T04:21:47.409Z,18.42
2023-05-10T04:24:19.613Z,18.42
2023-05-10T04:26:52.675Z,18.41
2023-05-10T04:29:25.202Z,18.41
2023-05-10T04:31:57.693Z,18.41
2023-05-10T04:34:30.323Z,18.41
2023-05-10T04:37:02.590Z,18.40
2023-05-10T04:39:36.198Z,18.39
2023-05-10T04:42:08.505Z,18.39
2023-05-10T04:44:40.813Z,18.38
2023-05-10T04:47:14.250Z,18.38
2023-05-10T04:49:46.789Z,18.38
2023-05-10T04:52:19.161Z,18.38
2023-05-10T04:54:51.955Z,18.37
2023-05-10T04:57:24.301Z,18.36
2023-05-10T04:59:56.786Z,18.36
2023-05-10T05:02:30.205Z,18.35
2023-05-10T05:05:02.553Z,18.35
2023-05-10T05:07:34.838Z,18.35
2023-05-10T05:10:08.631Z,18.33
2023-05-10T05:12:41.059Z,18.33
2023-05-10T05:15:13.408Z,18.33
2023-05-10T05:17:46.982Z,18.33
2023-05-10T05:20:20.461Z,18.32
2023-05-10T05:22:53.176Z,18.32
2023-05-10T05:25:25.558Z,18.32
2023-05-10T05:27:57.896Z,18.32
2023-05-10T05:30:30.369Z,18.32
2023-05-10T05:33:02.981Z,18.31
2023-05-10T05:35:35.371Z,18.31
2023-05-10T05:38:07.814Z,18.31
2023-05-10T05:40:40.068Z,18.31
2023-05-10T05:43:12.428Z,18.29
2023-05-10T05:45:44.906Z,18.30
2023-05-10T05:48:17.504Z,18.31
2023-05-10T05:50:50.281Z,18.30
2023-05-10T05:53:22.641Z,18.31
2023-05-10T05:55:59.335Z,18.32
2023-05-10T05:58:31.894Z,18.31
2023-05-10T06:01:04.373Z,18.31
2023-05-10T06:03:36.880Z,18.32
2023-05-10T06:06:09.283Z,18.32
2023-05-10T06:08:41.585Z,18.33
2023-05-10T06:11:13.881Z,18.34
2023-05-10T06:13:46.633Z,18.35
2023-05-10T06:16:19.194Z,18.36
2023-05-10T06:18:52.064Z,18.37
2023-05-10T06:21:25.750Z,18.39
2023-05-10T06:23:58.350Z,18.41
2023-05-10T06:26:30.998Z,18.43
2023-05-10T06:29:03.491Z,18.46
2023-05-10T06:31:36.356Z,18.47
2023-05-10T06:34:09.372Z,18.49
2023-05-10T06:36:42.235Z,18.52
2023-05-10T06:39:15.091Z,18.54
2023-05-10T06:41:47.880Z,18.56
2023-05-10T06:44:20.377Z,18.58
2023-05-10T06:46:54.499Z,18.61
2023-05-10T06:49:27.269Z,18.63
2023-05-10T06:51:59.939Z,18.65
2023-05-10T06:54:32.443Z,18.67
2023-05-10T06:57:10.747Z,18.68
2023-05-10T06:59:48.830Z,18.68
2023-05-10T07:02:21.259Z,18.70
2023-05-10T07:04:53.779Z,18.71
2023-05-10T07:07:26.145Z,18.72
2023-05-10T07:09:58.952Z,18.72
2023-05-10T07:12:31.476Z,18.72
2023-05-10T07:15:04.173Z,18.73
2023-05-10T07:17:36.810Z,18.73
2023-05-10T07:20:09.733Z,18.75
2023-05-10T07:22:42.532Z,18.75
2023-05-10T07:25:15.079Z,18.74
2023-05-10T07:27:49.680Z,18.75
2023-05-10T07:30:22.050Z,18.75
2023-05-10T07:32:54.405Z,18.74
2023-05-10T07:35:26.888Z,18.75
2023-05-10T07:37:59.170Z,18.77
2023-05-10T07:40:32.918Z,18.77
2023-05-10T07:43:05.242Z,18.77
2023-05-10T07:45:38.958Z,18.77
2023-05-10T07:48:11.526Z,18.77
2023-05-10T07:50:43.862Z,18.77
2023-05-10T07:53:17.859Z,18.78
2023-05-10T07:55:58.673Z,18.78
2023-05-10T07:58:31.216Z,18.77
2023-05-10T08:01:03.490Z,18.79
2023-05-10T08:03:36.040Z,18.78
2023-05-10T08:06:08.573Z,18.79
2023-05-10T08:08:42.721Z,18.79
2023-05-10T08:11:17.441Z,18.81
2023-05-10T08:13:51.244Z,18.79
2023-05-10T08:16:23.652Z,18.79
2023-05-10T08:18:57.665Z,18.82
2023-05-10T08:21:30.272Z,18.82
2023-05-10T08:24:02.786Z,18.82
2023-05-10T08:26:35.197Z,18.83
2023-05-10T08:29:08.073Z,18.83
2023-05-10T08:31:40.594Z,18.85
2023-05-10T08:34:13.146Z,18.85
2023-05-10T08:36:45.587Z,18.86
2023-05-10T08:39:29.315Z,18.86
2023-05-10T08:42:05.161Z,18.86
2023-05-10T08:44:38.032Z,18.86
2023-05-10T08:47:12.678Z,18.87
2023-05-10T08:49:49.206Z,18.86
2023-05-10T08:52:22.864Z,18.87
2023-05-10T08:54:55.458Z,18.88
2023-05-10T08:57:28.071Z,18.88
2023-05-10T09:00:02.187Z,18.90
2023-05-10T09:02:35.468Z,18.91
2023-05-10T09:05:08.109Z,18.91
2023-05-10T09:07:40.472Z,18.90
2023-05-10T09:10:14.621Z,18.92
2023-05-10T09:12:47.596Z,18.92
2023-05-10T09:15:21.060Z,18.93
2023-05-10T09:17:53.803Z,18.94
2023-05-10T09:20:26.428Z,18.94
2023-05-10T09:22:58.900Z,18.96
2023-05-10T09:25:31.427Z,18.97
2023-05-10T09:28:08.413Z,18.95
2023-05-10T09:30:41.376Z,18.98
2023-05-10T09:33:13.728Z,19.00
2023-05-10T09:35:45.856Z,19.00
2023-05-10T09:38:18.006Z,19.00
2023-05-10T09:40:58.646Z,19.00
2023-05-10T09:43:38.554Z,19.00
2023-05-10T09:46:12.300Z,18.99
2023-05-10T09:48:46.095Z,18.99
2023-05-10T09:51:25.842Z,18.98
2023-05-10T09:54:11.675Z,19.00
2023-05-10T09:56:43.877Z,19.00
2023-05-10T09:59:16.457Z,19.00
2023-05-10T10:01:52.407Z,19.00
2023-05-10T10:04:25.951Z,19.02
2023-05-10T10:07:02.572Z,19.02
2023-05-10T10:09:35.273Z,19.02
2023-05-10T10:12:07.428Z,19.04
2023-05-10T10:14:39.910Z,19.04
2023-05-10T10:17:13.278Z,19.04
2023-05-10T10:19:46.600Z,19.04
2023-05-10T10:22:18.765Z,19.05
2023-05-10T10:24:51.569Z,19.05
2023-05-10T10:27:46.719Z,19.06
2023-05-10T10:30:29.392Z,19.06
2023-05-10T10:33:13.332Z,19.08
2023-05-10T10:35:53.704Z,19.08
2023-05-10T10:38:25.937Z,19.09
2023-05-10T10:41:09.033Z,19.10
2023-05-10T10:43:41.184Z,19.10
2023-05-10T10:46:14.924Z,19.11
2023-05-10T10:49:06.297Z,19.12
2023-05-10T10:51:38.864Z,19.13
2023-05-10T10:54:11.487Z,19.13
2023-05-10T10:56:45.712Z,19.14
2023-05-10T10:59:27.550Z,19.15
2023-05-10T11:02:01.294Z,19.17
2023-05-10T11:04:43.645Z,19.17
2023-05-10T11:07:20.117Z,19.19
2023-05-10T11:09:52.818Z,19.21
2023-05-10T11:12:24.997Z,19.22
2023-05-10T11:14:58.416Z,19.24
2023-05-10T11:17:31.528Z,19.25
2023-05-10T11:20:16.016Z,19.27
2023-05-10T11:22:52.790Z,19.27
2023-05-10T11:25:28.180Z,19.28
2023-05-10T11:28:03.690Z,19.28
2023-05-10T11:30:36.121Z,19.29
2023-05-10T11:33:08.736Z,19.31
2023-05-10T11:35:43.419Z,19.31
2023-05-10T11:38:16.539Z,19.32
2023-05-10T11:40:52.813Z,19.30
2023-05-10T11:43:29.288Z,19.31
2023-05-10T11:46:01.398Z,19.32
2023-05-10T11:48:33.791Z,19.32
2023-05-10T11:51:05.931Z,19.33
2023-05-10T11:53:39.044Z,19.33
2023-05-10T11:56:11.485Z,19.33
2023-05-10T11:58:43.667Z,19.33
2023-05-10T12:01:17.029Z,19.35
2023-05-10T12:03:50.171Z,19.34
2023-05-10T12:06:22.695Z,19.35
2023-05-10T12:08:54.887Z,19.34
2023-05-10T12:11:28.431Z,19.34
2023-05-10T12:14:00.695Z,19.35
2023-05-10T12:16:32.819Z,19.35
2023-05-10T12:19:06.551Z,19.36
2023-05-10T12:21:40.176Z,19.36
2023-05-10T12:24:12.509Z,19.37
2023-05-10T12:26:46.235Z,19.38
2023-05-10T12:29:19.319Z,19.39
2023-05-10T12:31:59.061Z,19.42
2023-05-10T12:34:32.638Z,19.43
2023-05-10T12:37:04.918Z,19.45
2023-05-10T12:39:44.451Z,19.47
2023-05-10T12:42:19.035Z,19.49
2023-05-10T12:44:55.458Z,19.50
2023-05-10T12:47:53.063Z,19.55
2023-05-10T12:50:28.371Z,19.58
2023-05-10T12:53:01.467Z,19.60
2023-05-10T12:55:34.287Z,19.63
2023-05-10T12:58:06.436Z,19.65
2023-05-10T13:00:39.098Z,19.67
2023-05-10T13:03:11.591Z,19.70
2023-05-10T13:05:43.658Z,19.72
2023-05-10T13:08:15.807Z,19.74
2023-05-10T13:10:47.941Z,19.77
2023-05-10T13:13:20.467Z,19.78
2023-05-10T13:15:52.730Z,19.79
2023-05-10T13:18:25.571Z,19.81
2023-05-10T13:20:57.904Z,19.81
2023-05-10T13:23:29.988Z,19.82
2023-05-10T13:26:02.114Z,19.84
2023-05-10T13:28:34.196Z,19.87
2023-05-10T13:33:38.584Z,19.93
2023-05-10T13:36:10.715Z,19.93
2023-05-10T13:38:42.947Z,19.93
2023-05-10T13:41:15.213Z,19.92
2023-05-10T13:43:49.653Z,19.92
2023-05-10T13:46:21.804Z,19.89
2023-05-10T13:48:54.016Z,19.88
2023-05-10T13:51:26.170Z,19.87
2023-05-10T13:53:58.825Z,19.86
2023-05-10T13:56:31.953Z,19.85
2023-05-10T13:59:04.094Z,19.82
2023-05-10T14:01:36.214Z,19.80
2023-05-10T14:04:11.205Z,19.79
2023-05-10T14:06:43.496Z,19.79
2023-05-10T14:09:15.611Z,19.78
2023-05-10T14:11:47.800Z,19.78
2023-05-10T14:14:19.897Z,19.77
2023-05-10T14:16:52.005Z,19.78
2023-05-10T14:19:27.940Z,19.78
2023-05-10T14:22:00.057Z,19.79
2023-05-10T14:24:34.943Z,19.79
2023-05-10T14:27:07.110Z,19.80
2023-05-10T14:29:39.328Z,19.81
2023-05-10T14:32:11.551Z,19.86
2023-05-10T14:34:43.756Z,19.91
2023-05-10T14:37:16.438Z,19.99
2023-05-10T14:39:48.527Z,20.06
2023-05-10T14:42:20.654Z,20.15
2023-05-10T14:44:52.681Z,20.24
2023-05-10T14:47:25.040Z,20.35
2023-05-10T14:49:57.155Z,20.44
2023-05-10T14:52:29.339Z,20.53
2023-05-10T14:55:02.419Z,20.60
2023-05-10T14:57:34.590Z,20.63
2023-05-10T15:00:07.154Z,20.64
2023-05-10T15:02:39.835Z,20.67
2023-05-10T15:05:13.836Z,20.73
2023-05-10T15:07:46.622Z,20.89
2023-05-10T15:10:18.968Z,21.20
2023-05-10T15:12:51.463Z,21.51
2023-05-10T15:15:24.146Z,21.80
2023-05-10T15:17:56.384Z,22.02
2023-05-10T15:20:28.932Z,22.19
2023-05-10T15:23:01.115Z,22.35
2023-05-10T15:25:35.860Z,22.60
2023-05-10T15:28:08.018Z,22.81
2023-05-10T15:33:34.510Z,23.30
2023-05-10T15:42:04.900Z,24.45
2023-05-10T15:44:39.658Z,24.73
2023-05-10T15:47:13.144Z,24.92
2023-05-10T15:49:50.593Z,25.03
2023-05-10T15:52:24.029Z,25.16
2023-05-10T15:54:57.257Z,25.25
2023-05-10T16:00:31.816Z,25.28
2023-05-10T16:03:07.082Z,25.21
2023-05-10T16:05:39.987Z,25.12
2023-05-10T16:08:12.938Z,24.93
2023-05-10T16:10:46.040Z,24.71
2023-05-10T16:13:21.296Z,24.51
2023-05-10T16:15:57.412Z,24.33
2023-05-10T16:18:30.651Z,24.17
2023-05-10T16:21:03.612Z,23.98
2023-05-10T16:23:40.419Z,23.80
2023-05-10T16:26:16.675Z,23.60
2023-05-10T16:32:12.482Z,23.19
2023-05-10T16:34:45.518Z,23.02
2023-05-10T16:37:18.502Z,22.88
2023-05-10T16:39:55.799Z,22.73
2023-05-10T16:42:28.855Z,22.58
2023-05-10T16:48:04.803Z,22.31
2023-05-10T16:50:37.302Z,22.22
2023-05-10T16:53:12.236Z,22.13
2023-05-10T16:55:45.442Z,22.04
2023-05-10T16:58:18.636Z,21.97
2023-05-10T17:00:54.341Z,21.90
2023-05-10T17:03:28.344Z,21.84
2023-05-10T17:06:06.108Z,21.78
2023-05-10T17:08:39.239Z,21.71
2023-05-10T17:11:11.841Z,21.66
2023-05-10T17:13:47.699Z,21.59
2023-05-10T17:16:22.920Z,21.52
2023-05-10T17:18:57.954Z,21.45
2023-05-10T17:21:31.897Z,21.38
2023-05-10T17:24:05.015Z,21.31
2023-05-10T17:26:40.688Z,21.25
2023-05-10T17:29:14.104Z,21.17
2023-05-10T17:31:46.494Z,21.11
2023-05-10T17:34:19.415Z,21.06
2023-05-10T17:36:55.772Z,20.99
2023-05-10T17:39:28.004Z,20.95
2023-05-10T17:42:03.243Z,20.90
2023-05-10T17:44:35.496Z,20.86
2023-05-10T17:47:07.666Z,20.82
2023-05-10T17:49:40.259Z,20.77
2023-05-10T17:52:12.612Z,20.74
2023-05-10T17:54:44.692Z,20.71
2023-05-10T17:57:17.323Z,20.68
2023-05-10T17:59:49.568Z,20.65
2023-05-10T18:02:21.603Z,20.63
2023-05-10T18:04:53.913Z,20.60
2023-05-10T18:07:30.024Z,20.58
2023-05-10T18:10:02.252Z,20.57
2023-05-10T18:12:34.451Z,20.55
2023-05-10T18:15:06.853Z,20.53
2023-05-10T18:17:39.311Z,20.53
2023-05-10T18:20:11.583Z,20.55
2023-05-10T18:22:44.160Z,20.56
2023-05-10T18:25:17.041Z,20.58
2023-05-10T18:27:52.521Z,20.59
2023-05-10T18:30:24.804Z,20.58
2023-05-10T18:32:58.105Z,20.58
2023-05-10T18:35:31.439Z,20.57
2023-05-10T18:38:03.510Z,20.55
2023-05-10T18:40:36.630Z,20.55
2023-05-10T18:43:10.013Z,20.53
2023-05-10T18:45:42.178Z,20.50
2023-05-10T18:48:14.342Z,20.48
2023-05-10T18:50:46.491Z,20.46
2023-05-10T18:53:18.682Z,20.44
2023-05-10T18:55:58.456Z,20.40
2023-05-10T18:58:33.855Z,20.40
2023-05-10T19:01:08.121Z,20.39
2023-05-10T19:03:40.902Z,20.40
2023-05-10T19:06:13.253Z,20.40
2023-05-10T19:08:45.448Z,20.40
2023-05-10T19:11:17.602Z,20.40
2023-05-10T19:13:49.869Z,20.40
2023-05-10T19:16:23.413Z,20.39
2023-05-10T19:18:56.517Z,20.36
2023-05-10T19:21:28.822Z,20.35
2023-05-10T19:24:01.784Z,20.34
2023-05-10T19:26:33.915Z,20.34
2023-05-10T19:29:06.207Z,20.32
2023-05-10T19:31:38.579Z,20.31
2023-05-10T19:34:11.002Z,20.31
2023-05-10T19:36:43.514Z,20.29
2023-05-10T19:39:15.788Z,20.27
2023-05-10T19:41:52.978Z,20.26
2023-05-10T19:44:26.320Z,20.25
2023-05-10T19:47:05.941Z,20.23
2023-05-10T19:49:38.524Z,20.22
2023-05-10T19:52:12.419Z,20.21
2023-05-10T19:54:44.902Z,20.20
2023-05-10T19:57:18.880Z,20.18
2023-05-10T19:59:51.551Z,20.16
2023-05-10T20:02:23.670Z,20.15
2023-05-10T20:04:55.982Z,20.13
2023-05-10T20:07:28.062Z,20.13
2023-05-10T20:10:00.186Z,20.12
2023-05-10T20:12:32.448Z,20.11
2023-05-10T20:15:06.468Z,20.09
2023-05-10T20:17:38.714Z,20.08
2023-05-10T20:20:11.393Z,20.06
2023-05-10T20:22:44.275Z,20.06
2023-05-10T20:25:16.877Z,20.05
2023-05-10T20:27:50.962Z,20.03
2023-05-10T20:30:23.201Z,20.03
2023-05-10T20:32:55.495Z,20.01
2023-05-10T20:35:27.717Z,20.01
2023-05-10T20:38:00.367Z,19.99
2023-05-10T20:40:32.863Z,19.99
2023-05-10T20:43:06.359Z,19.96
2023-05-10T20:45:39.211Z,19.97
2023-05-10T20:48:11.485Z,19.95
2023-05-10T20:50:43.672Z,19.93
2023-05-10T20:53:18.560Z,19.94
2023-05-10T20:55:50.803Z,19.91
2023-05-10T20:58:23.323Z,19.91
2023-05-10T21:00:56.530Z,19.89
2023-05-10T21:03:28.993Z,19.88
2023-05-10T21:06:01.497Z,19.87
2023-05-10T21:08:33.646Z,19.86
2023-05-10T21:11:05.902Z,19.84
2023-05-10T21:13:38.176Z,19.83
2023-05-10T21:16:10.585Z,19.82
2023-05-10T21:18:42.829Z,19.80
2023-05-10T21:21:14.917Z,19.81
2023-05-10T21:23:47.113Z,19.78
2023-05-10T21:26:19.331Z,19.76
2023-05-10T21:28:51.612Z,19.77
2023-05-10T21:31:23.890Z,19.75
2023-05-10T21:33:56.983Z,19.73
2023-05-10T21:36:29.288Z,19.72
2023-05-10T21:39:01.642Z,19.70
2023-05-10T21:41:33.817Z,19.70
2023-05-10T21:44:06.036Z,19.69
2023-05-10T21:46:38.221Z,19.68
2023-05-10T21:49:10.252Z,19.67
2023-05-10T21:51:42.485Z,19.66
2023-05-10T21:54:14.676Z,19.65
2023-05-10T21:56:47.293Z,19.64
2023-05-10T21:59:21.390Z,19.63
2023-05-10T22:01:53.620Z,19.62
2023-05-10T22:04:25.749Z,19.61
2023-05-10T22:06:57.944Z,19.59
2023-05-10T22:09:30.210Z,19.60
2023-05-10T22:12:02.478Z,19.58
2023-05-10T22:14:34.613Z,19.58
2023-05-10T22:17:06.806Z,19.57
2023-05-10T22:19:39.048Z,19.56
2023-05-10T22:22:12.850Z,19.55
2023-05-10T22:24:47.234Z,19.54
2023-05-10T22:27:19.641Z,19.52
2023-05-10T22:29:51.854Z,19.52
2023-05-10T22:32:24.268Z,19.51
2023-05-10T22:34:56.456Z,19.50
2023-05-10T22:37:28.762Z,19.50
2023-05-10T22:40:01.180Z,19.49
2023-05-10T22:42:33.941Z,19.48
2023-05-10T22:45:06.953Z,19.48
2023-05-10T22:47:39.530Z,19.47
2023-05-10T22:50:11.904Z,19.46
2023-05-10T22:52:54.164Z,19.46
2023-05-10T22:55:26.356Z,19.45
2023-05-10T22:57:58.900Z,19.44
2023-05-10T23:00:31.125Z,19.44
2023-05-10T23:03:03.849Z,19.42
2023-05-10T23:05:36.184Z,19.42
2023-05-10T23:08:08.392Z,19.40
2023-05-10T23:10:40.688Z,19.41
2023-05-10T23:13:13.321Z,19.40
2023-05-10T23:15:45.497Z,19.38
2023-05-10T23:18:18.320Z,19.38
2023-05-10T23:20:50.777Z,19.37
2023-05-10T23:23:23.145Z,19.36
2023-05-10T23:25:55.337Z,19.36
2023-05-10T23:28:27.816Z,19.35
2023-05-10T23:30:59.918Z,19.34
2023-05-10T23:33:31.968Z,19.35
2023-05-10T23:36:04.432Z,19.33
2023-05-10T23:38:38.197Z,19.32
2023-05-10T23:41:10.262Z,19.30
2023-05-10T23:43:42.416Z,19.32
2023-05-10T23:46:14.772Z,19.30
2023-05-10T23:48:47.101Z,19.28
2023-05-10T23:51:19.241Z,19.29
2023-05-10T23:53:51.437Z,19.29
2023-05-10T23:56:23.545Z,19.29
2023-05-10T23:58:55.854Z,19.27
